createdAt,value
2023-03-04T00:00:56.287Z,6.53
2023-03-04T00:01:56.298Z,6.51
2023-03-04T00:02:56.318Z,6.51
2023-03-04T00:03:56.253Z,6.50
2023-03-04T00:04:56.270Z,6.51
2023-03-04T00:05:56.253Z,6.53
2023-03-04T00:06:56.224Z,6.53
2023-03-04T00:07:56.259Z,6.53
2023-03-04T00:08:56.202Z,6.53
2023-03-04T00:09:56.193Z,6.58
2023-03-04T00:10:56.182Z,6.60
2023-03-04T00:11:56.187Z,6.60
2023-03-04T00:12:56.155Z,6.61
2023-03-04T00:13:56.139Z,6.64
2023-03-04T00:14:56.132Z,6.68
2023-03-04T00:15:56.122Z,6.68
2023-03-04T00:16:56.113Z,6.64
2023-03-04T00:17:56.099Z,6.63
2023-03-04T00:18:56.093Z,6.63
2023-03-04T00:19:56.080Z,6.60
2023-03-04T00:20:56.089Z,6.61
2023-03-04T00:21:56.058Z,6.63
2023-03-04T00:22:56.047Z,6.61
2023-03-04T00:23:56.032Z,6.60
2023-03-04T00:24:56.025Z,6.58
2023-03-04T00:25:56.016Z,6.58
2023-03-04T00:26:56.007Z,6.58
2023-03-04T00:27:55.992Z,6.61
2023-03-04T00:28:55.982Z,6.61
2023-03-04T00:29:55.970Z,6.61
2023-03-04T00:30:55.994Z,6.61
2023-03-04T00:31:56.099Z,6.61
2023-03-04T00:32:55.931Z,6.64
2023-03-04T00:33:55.923Z,6.64
2023-03-04T00:34:55.924Z,6.65
2023-03-04T00:35:55.974Z,6.65
2023-03-04T00:36:55.915Z,6.64
2023-03-04T00:37:55.876Z,6.63
2023-03-04T00:38:55.865Z,6.64
2023-03-04T00:39:55.855Z,6.61
2023-03-04T00:40:55.845Z,6.61
2023-03-04T00:41:55.835Z,6.64
2023-03-04T00:42:55.825Z,6.63
2023-03-04T00:43:55.819Z,6.64
2023-03-04T00:44:55.803Z,6.65
2023-03-04T00:45:55.971Z,6.68
2023-03-04T00:46:55.779Z,6.69
2023-03-04T00:47:55.770Z,6.65
2023-03-04T00:48:55.763Z,6.68
2023-03-04T00:49:55.747Z,6.69
2023-03-04T00:50:55.733Z,6.69
2023-03-04T00:51:55.726Z,6.65
2023-03-04T00:52:55.739Z,6.68
2023-03-04T00:53:55.724Z,6.65
2023-03-04T00:54:55.696Z,6.64
2023-03-04T00:55:55.680Z,6.65
2023-03-04T00:56:55.667Z,6.63
2023-03-04T00:57:55.661Z,6.64
2023-03-04T00:58:55.666Z,6.64
2023-03-04T00:59:55.638Z,6.65
2023-03-04T01:00:55.637Z,6.65
2023-03-04T01:01:55.613Z,6.63
2023-03-04T01:02:55.606Z,6.68
2023-03-04T01:03:55.593Z,6.69
2023-03-04T01:04:55.581Z,6.69
2023-03-04T01:05:55.573Z,6.71
2023-03-04T01:06:55.560Z,6.71
2023-03-04T01:07:55.549Z,6.69
2023-03-04T01:08:55.560Z,6.71
2023-03-04T01:09:55.526Z,6.69
2023-03-04T01:10:55.518Z,6.68
2023-03-04T01:11:55.501Z,6.68
2023-03-04T01:12:55.492Z,6.68
2023-03-04T01:13:55.480Z,6.64
2023-03-04T01:14:55.467Z,6.65
2023-03-04T01:15:55.457Z,6.64
2023-03-04T01:16:55.524Z,6.65
2023-03-04T01:17:55.473Z,6.68
2023-03-04T01:18:55.422Z,6.68
2023-03-04T01:19:55.414Z,6.65
2023-03-04T01:20:55.415Z,6.68
2023-03-04T01:21:55.391Z,6.69
2023-03-04T01:22:55.377Z,6.68
2023-03-04T01:23:55.374Z,6.65
2023-03-04T01:24:55.383Z,6.65
2023-03-04T01:25:55.347Z,6.64
2023-03-04T01:26:55.340Z,6.64
2023-03-04T01:27:55.328Z,6.61
2023-03-04T01:28:55.313Z,6.61
2023-03-04T01:29:55.306Z,6.63
2023-03-04T01:30:55.368Z,6.61
2023-03-04T01:31:55.310Z,6.58
2023-03-04T01:32:55.275Z,6.55
2023-03-04T01:33:55.259Z,6.53
2023-03-04T01:34:55.247Z,6.51
2023-03-04T01:35:55.294Z,6.50
2023-03-04T01:36:55.230Z,6.50
2023-03-04T01:37:55.230Z,6.48
2023-03-04T01:38:55.206Z,6.50
2023-03-04T01:39:55.211Z,6.48
2023-03-04T01:40:55.218Z,6.50
2023-03-04T01:41:55.175Z,6.51
2023-03-04T01:42:55.163Z,6.51
2023-03-04T01:43:55.150Z,6.53
2023-03-04T01:44:55.143Z,6.53
2023-03-04T01:45:55.164Z,6.54
2023-03-04T01:46:55.121Z,6.53
2023-03-04T01:47:55.109Z,6.51
2023-03-04T01:48:55.143Z,6.54
2023-03-04T01:49:55.087Z,6.54
2023-03-04T01:50:55.076Z,6.58
2023-03-04T01:51:55.062Z,6.64
2023-03-04T01:52:55.066Z,6.65
2023-03-04T01:53:55.092Z,6.65
2023-03-04T01:54:55.041Z,6.71
2023-03-04T01:55:55.020Z,6.75
2023-03-04T01:56:55.049Z,6.72
2023-03-04T01:57:54.998Z,6.72
2023-03-04T01:58:54.984Z,6.72
2023-03-04T01:59:54.983Z,6.71
2023-03-04T02:00:54.968Z,6.71
2023-03-04T02:01:55.061Z,6.72
2023-03-04T02:02:54.944Z,6.72
2023-03-04T02:03:54.960Z,6.72
2023-03-04T02:04:54.919Z,6.72
2023-03-04T02:05:54.920Z,6.72
2023-03-04T02:06:54.903Z,6.72
2023-03-04T02:07:54.898Z,6.72
2023-03-04T02:08:54.875Z,6.71
2023-03-04T02:09:54.866Z,6.73
2023-03-04T02:10:54.858Z,6.73
2023-03-04T02:11:54.852Z,6.73
2023-03-04T02:12:54.854Z,6.72
2023-03-04T02:13:54.826Z,6.72
2023-03-04T02:14:54.811Z,6.69
2023-03-04T02:15:54.833Z,6.69
2023-03-04T02:16:54.796Z,6.68
2023-03-04T02:17:54.779Z,6.65
2023-03-04T02:18:54.771Z,6.65
2023-03-04T02:19:54.761Z,6.64
2023-03-04T02:20:54.749Z,6.63
2023-03-04T02:21:54.734Z,6.63
2023-03-04T02:22:54.730Z,6.61
2023-03-04T02:23:54.717Z,6.60
2023-03-04T02:24:54.709Z,6.60
2023-03-04T02:25:54.690Z,6.63
2023-03-04T02:26:54.683Z,6.60
2023-03-04T02:27:54.675Z,6.58
2023-03-04T02:28:54.689Z,6.57
2023-03-04T02:29:54.650Z,6.54
2023-03-04T02:30:54.663Z,6.54
2023-03-04T02:31:54.830Z,6.55
2023-03-04T02:32:54.615Z,6.54
2023-03-04T02:33:54.603Z,6.55
2023-03-04T02:34:54.591Z,6.54
2023-03-04T02:35:54.684Z,6.54
2023-03-04T02:36:54.570Z,6.55
2023-03-04T02:37:54.562Z,6.54
2023-03-04T02:38:54.546Z,6.54
2023-03-04T02:39:54.538Z,6.55
2023-03-04T02:40:54.530Z,6.53
2023-03-04T02:41:54.519Z,6.54
2023-03-04T02:42:54.503Z,6.51
2023-03-04T02:43:54.505Z,6.51
2023-03-04T02:44:54.507Z,6.51
2023-03-04T02:45:54.484Z,6.51
2023-03-04T02:46:54.527Z,6.48
2023-03-04T02:47:54.449Z,6.50
2023-03-04T02:48:54.436Z,6.50
2023-03-04T02:49:54.432Z,6.50
2023-03-04T02:50:54.421Z,6.50
2023-03-04T02:51:54.410Z,6.46
2023-03-04T02:52:54.394Z,6.48
2023-03-04T02:53:54.389Z,6.50
2023-03-04T02:54:54.371Z,6.50
2023-03-04T02:55:54.368Z,6.51
2023-03-04T02:56:54.348Z,6.54
2023-03-04T02:57:54.342Z,6.53
2023-03-04T02:58:54.329Z,6.51
2023-03-04T02:59:54.318Z,6.48
2023-03-04T03:00:54.335Z,6.48
2023-03-04T03:01:54.425Z,6.50
2023-03-04T03:02:54.332Z,6.46
2023-03-04T03:03:54.287Z,6.48
2023-03-04T03:04:54.310Z,6.46
2023-03-04T03:05:54.343Z,6.46
2023-03-04T03:06:54.348Z,6.48
2023-03-04T03:07:54.382Z,6.45
2023-03-04T03:08:54.378Z,6.45
2023-03-04T03:09:54.384Z,6.48
2023-03-04T03:10:54.211Z,6.46
2023-03-04T03:11:54.193Z,6.46
2023-03-04T03:12:54.178Z,6.48
2023-03-04T03:13:54.188Z,6.50
2023-03-04T03:14:54.175Z,6.48
2023-03-04T03:15:54.198Z,6.48
2023-03-04T03:16:54.160Z,6.48
2023-03-04T03:17:54.129Z,6.46
2023-03-04T03:18:54.113Z,6.48
2023-03-04T03:19:54.099Z,6.46
2023-03-04T03:20:54.086Z,6.50
2023-03-04T03:21:54.076Z,6.50
2023-03-04T03:22:54.061Z,6.50
2023-03-04T03:23:54.056Z,6.50
2023-03-04T03:24:54.046Z,6.51
2023-03-04T03:25:54.031Z,6.51
2023-03-04T03:26:54.032Z,6.50
2023-03-04T03:27:54.013Z,6.51
2023-03-04T03:28:53.996Z,6.53
2023-03-04T03:29:53.988Z,6.50
2023-03-04T03:30:53.983Z,6.48
2023-03-04T03:31:54.094Z,6.48
2023-03-04T03:32:53.976Z,6.50
2023-03-04T03:33:53.946Z,6.51
2023-03-04T03:34:53.928Z,6.46
2023-03-04T03:35:54.040Z,6.46
2023-03-04T03:36:53.910Z,6.48
2023-03-04T03:37:53.896Z,6.46
2023-03-04T03:38:53.884Z,6.45
2023-03-04T03:39:53.876Z,6.45
2023-03-04T03:40:53.877Z,6.46
2023-03-04T03:41:53.877Z,6.48
2023-03-04T03:42:53.839Z,6.46
2023-03-04T03:43:53.837Z,6.46
2023-03-04T03:44:53.820Z,6.42
2023-03-04T03:45:53.846Z,6.45
2023-03-04T03:46:53.795Z,6.45
2023-03-04T03:47:53.797Z,6.42
2023-03-04T03:48:53.797Z,6.42
2023-03-04T03:49:53.763Z,6.39
2023-03-04T03:50:53.753Z,6.36
2023-03-04T03:51:53.741Z,6.36
2023-03-04T03:52:53.736Z,6.35
2023-03-04T03:53:53.725Z,6.33
2023-03-04T03:54:53.713Z,6.35
2023-03-04T03:55:53.701Z,6.28
2023-03-04T03:56:53.688Z,6.30
2023-03-04T03:57:53.683Z,6.30
2023-03-04T03:58:53.665Z,6.27
2023-03-04T03:59:53.657Z,6.25
2023-03-04T04:00:54.918Z,6.25
2023-03-04T04:01:53.772Z,6.25
2023-03-04T04:02:53.677Z,6.27
2023-03-04T04:03:53.612Z,6.27
2023-03-04T04:04:53.641Z,6.28
2023-03-04T04:05:53.593Z,6.27
2023-03-04T04:06:53.603Z,6.27
2023-03-04T04:07:54.109Z,6.25
2023-03-04T04:08:53.555Z,6.25
2023-03-04T04:09:53.547Z,6.25
2023-03-04T04:10:53.533Z,6.24
2023-03-04T04:11:53.528Z,6.21
2023-03-04T04:12:53.518Z,6.20
2023-03-04T04:13:53.502Z,6.20
2023-03-04T04:14:53.496Z,6.20
2023-03-04T04:15:53.480Z,6.17
2023-03-04T04:16:53.561Z,6.16
2023-03-04T04:17:53.461Z,6.16
2023-03-04T04:18:53.449Z,6.13
2023-03-04T04:19:53.437Z,6.16
2023-03-04T04:20:53.459Z,6.11
2023-03-04T04:21:53.414Z,6.10
2023-03-04T04:22:53.400Z,6.10
2023-03-04T04:23:53.393Z,6.06
2023-03-04T04:24:53.399Z,6.05
2023-03-04T04:25:53.369Z,6.03
2023-03-04T04:26:53.359Z,6.03
2023-03-04T04:27:53.360Z,5.99
2023-03-04T04:28:53.332Z,5.99
2023-03-04T04:29:53.328Z,5.98
2023-03-04T04:30:53.437Z,5.95
2023-03-04T04:31:53.298Z,5.95
2023-03-04T04:32:53.287Z,5.93
2023-03-04T04:33:53.276Z,5.92
2023-03-04T04:34:53.267Z,5.90
2023-03-04T04:35:53.333Z,5.92
2023-03-04T04:36:53.270Z,5.90
2023-03-04T04:37:53.235Z,5.87
2023-03-04T04:38:53.223Z,5.87
2023-03-04T04:39:53.207Z,5.88
2023-03-04T04:40:53.202Z,5.85
2023-03-04T04:41:53.190Z,5.84
2023-03-04T04:42:53.181Z,5.83
2023-03-04T04:43:53.169Z,5.81
2023-03-04T04:44:53.200Z,5.80
2023-03-04T04:45:53.190Z,5.80
2023-03-04T04:46:53.132Z,5.81
2023-03-04T04:47:53.121Z,5.80
2023-03-04T04:48:53.113Z,5.78
2023-03-04T04:49:53.101Z,5.80
2023-03-04T04:50:53.090Z,5.80
2023-03-04T04:51:53.079Z,5.80
2023-03-04T04:52:53.091Z,5.78
2023-03-04T04:53:53.056Z,5.80
2023-03-04T04:54:53.042Z,5.78
2023-03-04T04:55:53.033Z,5.81
2023-03-04T04:56:53.023Z,5.81
2023-03-04T04:57:53.006Z,5.80
2023-03-04T04:58:53.000Z,5.78
2023-03-04T04:59:52.990Z,5.80
2023-03-04T05:00:52.978Z,5.80
2023-03-04T05:01:52.977Z,5.80
2023-03-04T05:02:53.029Z,5.80
2023-03-04T05:03:52.958Z,5.80
2023-03-04T05:04:52.937Z,5.80
2023-03-04T05:05:52.927Z,5.78
2023-03-04T05:06:52.917Z,5.80
2023-03-04T05:07:52.903Z,5.81
2023-03-04T05:08:52.956Z,5.80
2023-03-04T05:09:52.902Z,5.83
2023-03-04T05:10:52.872Z,5.81
2023-03-04T05:11:52.859Z,5.83
2023-03-04T05:12:52.848Z,5.83
2023-03-04T05:13:52.840Z,5.85
2023-03-04T05:14:52.830Z,5.83
2023-03-04T05:15:52.898Z,5.83
2023-03-04T05:16:52.824Z,5.83
2023-03-04T05:17:52.801Z,5.83
2023-03-04T05:18:52.791Z,5.81
2023-03-04T05:19:52.780Z,5.81
2023-03-04T05:20:52.770Z,5.81
2023-03-04T05:21:52.766Z,5.81
2023-03-04T05:22:52.740Z,5.81
2023-03-04T05:23:52.730Z,5.81
2023-03-04T05:24:52.745Z,5.83
2023-03-04T05:25:52.724Z,5.84
2023-03-04T05:26:52.711Z,5.84
2023-03-04T05:27:52.687Z,5.81
2023-03-04T05:28:52.678Z,5.85
2023-03-04T05:29:52.662Z,5.84
2023-03-04T05:30:52.698Z,5.85
2023-03-04T05:31:52.644Z,5.85
2023-03-04T05:32:52.631Z,5.88
2023-03-04T05:33:52.619Z,5.87
2023-03-04T05:34:52.613Z,5.88
2023-03-04T05:35:52.637Z,5.88
2023-03-04T05:36:52.589Z,5.90
2023-03-04T05:37:52.577Z,5.90
2023-03-04T05:38:52.565Z,5.88
2023-03-04T05:39:52.559Z,5.92
2023-03-04T05:40:52.578Z,5.88
2023-03-04T05:41:52.535Z,5.90
2023-03-04T05:42:52.525Z,5.88
2023-03-04T05:43:52.510Z,5.92
2023-03-04T05:44:52.501Z,5.92
2023-03-04T05:45:52.491Z,5.92
2023-03-04T05:46:52.539Z,5.93
2023-03-04T05:47:52.468Z,5.96
2023-03-04T05:48:52.468Z,5.95
2023-03-04T05:49:52.469Z,5.93
2023-03-04T05:50:52.438Z,5.96
2023-03-04T05:51:52.422Z,5.95
2023-03-04T05:52:52.420Z,5.99
2023-03-04T05:53:52.400Z,5.95
2023-03-04T05:54:52.394Z,5.98
2023-03-04T05:55:52.383Z,5.96
2023-03-04T05:56:52.394Z,5.96
2023-03-04T05:57:52.357Z,5.98
2023-03-04T05:58:52.363Z,5.99
2023-03-04T05:59:52.338Z,5.99
2023-03-04T06:00:52.346Z,6.02
2023-03-04T06:01:52.311Z,5.99
2023-03-04T06:02:52.401Z,6.01
2023-03-04T06:03:52.294Z,5.99
2023-03-04T06:04:52.283Z,6.01
2023-03-04T06:05:52.270Z,5.99
2023-03-04T06:06:52.255Z,6.02
2023-03-04T06:07:52.245Z,6.03
2023-03-04T06:08:52.239Z,6.05
2023-03-04T06:09:52.225Z,6.03
2023-03-04T06:10:52.222Z,6.02
2023-03-04T06:11:52.201Z,6.05
2023-03-04T06:12:52.218Z,6.05
2023-03-04T06:13:52.239Z,6.05
2023-03-04T06:14:52.175Z,6.08
2023-03-04T06:15:52.178Z,6.05
2023-03-04T06:16:52.150Z,6.05
2023-03-04T06:17:52.136Z,6.06
2023-03-04T06:18:52.128Z,6.06
2023-03-04T06:19:52.111Z,6.05
2023-03-04T06:20:52.107Z,6.06
2023-03-04T06:21:52.096Z,6.03
2023-03-04T06:22:52.083Z,6.05
2023-03-04T06:23:52.071Z,6.06
2023-03-04T06:24:52.059Z,6.06
2023-03-04T06:25:52.053Z,6.06
2023-03-04T06:26:52.042Z,6.06
2023-03-04T06:27:53.580Z,6.08
2023-03-04T06:28:52.041Z,6.06
2023-03-04T06:29:52.001Z,6.08
2023-03-04T06:30:51.995Z,6.08
2023-03-04T06:31:52.075Z,6.06
2023-03-04T06:32:51.972Z,6.10
2023-03-04T06:33:51.969Z,6.08
2023-03-04T06:34:51.949Z,6.10
2023-03-04T06:35:51.969Z,6.08
2023-03-04T06:36:51.926Z,6.10
2023-03-04T06:37:51.914Z,6.11
2023-03-04T06:38:51.902Z,6.10
2023-03-04T06:39:51.891Z,6.11
2023-03-04T06:40:52.083Z,6.11
2023-03-04T06:41:51.871Z,6.11
2023-03-04T06:42:51.862Z,6.13
2023-03-04T06:43:51.850Z,6.14
2023-03-04T06:44:51.857Z,6.13
2023-03-04T06:45:51.840Z,6.14
2023-03-04T06:46:51.899Z,6.13
2023-03-04T06:47:51.814Z,6.14
2023-03-04T06:48:51.797Z,6.11
2023-03-04T06:49:51.795Z,6.13
2023-03-04T06:50:51.769Z,6.16
2023-03-04T06:51:51.758Z,6.17
2023-03-04T06:52:51.747Z,6.16
2023-03-04T06:53:51.735Z,6.14
2023-03-04T06:54:51.725Z,6.17
2023-03-04T06:55:51.716Z,6.20
2023-03-04T06:56:51.703Z,6.24
2023-03-04T06:57:51.692Z,6.25
2023-03-04T06:58:51.715Z,6.27
2023-03-04T06:59:51.671Z,6.30
2023-03-04T07:00:51.710Z,6.32
2023-03-04T07:01:51.648Z,6.27
2023-03-04T07:02:53.373Z,6.32
2023-03-04T07:03:51.655Z,6.30
2023-03-04T07:04:51.625Z,6.28
2023-03-04T07:05:51.603Z,6.32
2023-03-04T07:06:51.595Z,6.32
2023-03-04T07:07:51.584Z,6.32
2023-03-04T07:08:51.573Z,6.32
2023-03-04T07:09:51.560Z,6.30
2023-03-04T07:10:51.550Z,6.30
2023-03-04T07:11:51.539Z,6.28
2023-03-04T07:12:51.532Z,6.28
2023-03-04T07:13:51.517Z,6.27
2023-03-04T07:14:51.513Z,6.25
2023-03-04T07:15:51.496Z,6.28
2023-03-04T07:16:51.513Z,6.24
2023-03-04T07:17:51.472Z,6.25
2023-03-04T07:18:51.517Z,6.24
2023-03-04T07:19:51.454Z,6.25
2023-03-04T07:20:51.440Z,6.24
2023-03-04T07:21:51.426Z,6.24
2023-03-04T07:22:51.424Z,6.21
2023-03-04T07:23:51.422Z,6.20
2023-03-04T07:24:51.396Z,6.21
2023-03-04T07:25:51.388Z,6.24
2023-03-04T07:26:51.376Z,6.27
2023-03-04T07:27:51.372Z,6.28
2023-03-04T07:28:51.356Z,6.28
2023-03-04T07:29:51.349Z,6.28
2023-03-04T07:30:51.331Z,6.25
2023-03-04T07:31:53.606Z,6.27
2023-03-04T07:32:51.386Z,6.25
2023-03-04T07:33:51.297Z,6.25
2023-03-04T07:34:51.287Z,6.25
2023-03-04T07:35:51.308Z,6.27
2023-03-04T07:36:51.267Z,6.24
2023-03-04T07:37:51.268Z,6.25
2023-03-04T07:38:51.245Z,6.21
2023-03-04T07:39:51.231Z,6.21
2023-03-04T07:40:51.219Z,6.24
2023-03-04T07:41:51.211Z,6.27
2023-03-04T07:42:51.203Z,6.25
2023-03-04T07:43:51.186Z,6.27
2023-03-04T07:44:51.179Z,6.27
2023-03-04T07:45:51.222Z,6.28
2023-03-04T07:46:51.157Z,6.24
2023-03-04T07:47:51.147Z,6.27
2023-03-04T07:48:51.156Z,6.30
2023-03-04T07:49:51.125Z,6.32
2023-03-04T07:50:51.115Z,6.30
2023-03-04T07:51:51.104Z,6.32
2023-03-04T07:52:51.092Z,6.33
2023-03-04T07:53:51.077Z,6.35
2023-03-04T07:54:51.069Z,6.32
2023-03-04T07:55:51.056Z,6.36
2023-03-04T07:56:51.052Z,6.32
2023-03-04T07:57:51.035Z,6.32
2023-03-04T07:58:51.023Z,6.33
2023-03-04T07:59:51.016Z,6.33
2023-03-04T08:00:51.002Z,6.39
2023-03-04T08:01:50.989Z,6.39
2023-03-04T08:02:51.020Z,6.38
2023-03-04T08:03:51.044Z,6.40
2023-03-04T08:04:50.980Z,6.40
2023-03-04T08:05:50.953Z,6.40
2023-03-04T08:06:50.941Z,6.40
2023-03-04T08:07:50.925Z,6.38
2023-03-04T08:08:50.926Z,6.38
2023-03-04T08:09:50.903Z,6.40
2023-03-04T08:10:50.891Z,6.40
2023-03-04T08:11:50.882Z,6.42
2023-03-04T08:12:50.873Z,6.43
2023-03-04T08:13:50.856Z,6.48
2023-03-04T08:14:50.847Z,6.42
2023-03-04T08:15:50.883Z,6.42
2023-03-04T08:16:50.827Z,6.45
2023-03-04T08:17:50.811Z,6.50
2023-03-04T08:18:50.801Z,6.46
2023-03-04T08:19:50.798Z,6.46
2023-03-04T08:20:50.821Z,6.48
2023-03-04T08:21:50.785Z,6.48
2023-03-04T08:22:50.762Z,6.51
2023-03-04T08:23:50.802Z,6.51
2023-03-04T08:24:50.743Z,6.53
2023-03-04T08:25:50.721Z,6.54
2023-03-04T08:26:50.714Z,6.55
2023-03-04T08:27:50.706Z,6.61
2023-03-04T08:28:50.694Z,6.64
2023-03-04T08:29:50.678Z,6.69
2023-03-04T08:30:50.699Z,6.72
2023-03-04T08:31:50.786Z,6.73
2023-03-04T08:32:50.746Z,6.71
2023-03-04T08:33:50.635Z,6.58
2023-03-04T08:34:50.623Z,6.58
2023-03-04T08:35:50.660Z,6.60
2023-03-04T08:36:50.628Z,6.64
2023-03-04T08:37:50.594Z,6.68
2023-03-04T08:38:50.583Z,6.71
2023-03-04T08:39:50.566Z,6.79
2023-03-04T08:40:50.567Z,6.86
2023-03-04T08:41:50.545Z,6.87
2023-03-04T08:42:50.535Z,6.99
2023-03-04T08:43:50.522Z,7.09
2023-03-04T08:44:50.516Z,7.04
2023-03-04T08:45:50.547Z,6.96
2023-03-04T08:46:50.493Z,6.94
2023-03-04T08:47:50.487Z,6.93
2023-03-04T08:48:50.470Z,6.89
2023-03-04T08:49:50.461Z,6.78
2023-03-04T08:50:50.458Z,6.78
2023-03-04T08:51:50.444Z,6.75
2023-03-04T08:52:50.449Z,6.71
2023-03-04T08:53:50.426Z,6.71
2023-03-04T08:54:50.411Z,6.65
2023-03-04T08:55:50.393Z,6.61
2023-03-04T08:56:50.385Z,6.57
2023-03-04T08:57:50.374Z,6.50
2023-03-04T08:58:50.362Z,6.45
2023-03-04T08:59:50.351Z,6.43
2023-03-04T09:00:50.337Z,6.35
2023-03-04T09:01:50.407Z,6.40
2023-03-04T09:02:50.329Z,6.36
2023-03-04T09:03:50.344Z,6.50
2023-03-04T09:04:50.297Z,6.61
2023-03-04T09:05:50.285Z,6.96
2023-03-04T09:06:51.781Z,7.32
2023-03-04T09:07:50.267Z,7.51
2023-03-04T09:08:50.276Z,7.79
2023-03-04T09:09:50.262Z,7.81
2023-03-04T09:10:50.228Z,7.89
2023-03-04T09:11:50.230Z,8.00
2023-03-04T09:12:50.202Z,7.88
2023-03-04T09:13:50.198Z,7.92
2023-03-04T09:15:04.657Z,8.37
2023-03-04T09:15:51.301Z,8.64
2023-03-04T09:16:50.162Z,9.04
2023-03-04T09:17:50.157Z,9.48
2023-03-04T09:18:50.140Z,9.23
2023-03-04T09:19:50.137Z,8.85
2023-03-04T09:20:50.122Z,8.17
2023-03-04T09:21:50.114Z,7.74
2023-03-04T09:22:50.097Z,7.48
2023-03-04T09:23:50.085Z,7.34
2023-03-04T09:24:50.094Z,7.16
2023-03-04T09:25:50.068Z,7.00
2023-03-04T09:26:50.051Z,6.90
2023-03-04T09:27:50.039Z,6.89
2023-03-04T09:28:50.027Z,6.78
2023-03-04T09:29:50.020Z,6.76
2023-03-04T09:30:50.009Z,6.68
2023-03-04T09:31:49.997Z,6.71
2023-03-04T09:32:49.994Z,6.73
2023-03-04T09:33:49.979Z,6.72
2023-03-04T09:34:49.967Z,6.78
2023-03-04T09:35:50.062Z,6.82
2023-03-04T09:36:49.944Z,6.87
2023-03-04T09:37:49.933Z,6.82
2023-03-04T09:38:49.939Z,6.78
2023-03-04T09:39:49.910Z,6.79
2023-03-04T09:40:49.918Z,6.81
2023-03-04T09:41:49.889Z,6.78
2023-03-04T09:42:49.871Z,6.78
2023-03-04T09:43:49.863Z,6.90
2023-03-04T09:44:49.868Z,7.05
2023-03-04T09:45:49.843Z,7.26
2023-03-04T09:46:49.956Z,7.44
2023-03-04T09:47:49.822Z,7.47
2023-03-04T09:48:49.808Z,7.42
2023-03-04T09:49:49.802Z,7.48
2023-03-04T09:50:49.785Z,7.60
2023-03-04T09:51:49.778Z,7.57
2023-03-04T09:52:49.763Z,7.67
2023-03-04T09:53:49.758Z,7.54
2023-03-04T09:54:49.743Z,7.73
2023-03-04T09:55:49.731Z,8.20
2023-03-04T09:56:49.744Z,8.12
2023-03-04T09:57:49.709Z,7.77
2023-03-04T09:58:49.706Z,7.45
2023-03-04T09:59:49.688Z,7.30
2023-03-04T10:00:49.693Z,7.18
2023-03-04T10:01:49.670Z,7.01
2023-03-04T10:02:49.653Z,6.89
2023-03-04T10:03:49.679Z,6.78
2023-03-04T10:04:49.677Z,6.73
2023-03-04T10:05:49.619Z,6.71
2023-03-04T10:06:49.605Z,6.73
2023-03-04T10:07:49.597Z,7.00
2023-03-04T10:08:49.585Z,7.37
2023-03-04T10:09:49.575Z,7.81
2023-03-04T10:10:49.614Z,7.86
2023-03-04T10:11:49.556Z,7.88
2023-03-04T10:12:49.562Z,7.89
2023-03-04T10:13:49.531Z,7.99
2023-03-04T10:14:49.518Z,7.96
2023-03-04T10:15:49.510Z,7.76
2023-03-04T10:16:49.497Z,7.66
2023-03-04T10:17:49.485Z,7.42
2023-03-04T10:18:49.478Z,7.26
2023-03-04T10:19:49.487Z,7.19
2023-03-04T10:20:49.482Z,7.11
2023-03-04T10:21:49.519Z,6.94
2023-03-04T10:22:49.527Z,6.61
2023-03-04T10:23:49.529Z,6.58
2023-03-04T10:24:49.552Z,6.60
2023-03-04T10:25:49.541Z,6.53
2023-03-04T10:26:49.551Z,6.48
2023-03-04T10:27:49.381Z,6.38
2023-03-04T10:28:49.383Z,6.27
2023-03-04T10:29:49.359Z,6.36
2023-03-04T10:30:49.338Z,6.46
2023-03-04T10:31:49.427Z,6.51
2023-03-04T10:32:49.317Z,6.55
2023-03-04T10:33:49.303Z,6.68
2023-03-04T10:34:49.298Z,6.81
2023-03-04T10:35:49.323Z,6.93
2023-03-04T10:36:49.267Z,7.01
2023-03-04T10:37:49.255Z,7.19
2023-03-04T10:38:49.248Z,7.44
2023-03-04T10:39:49.235Z,7.51
2023-03-04T10:40:49.222Z,7.45
2023-03-04T10:41:49.337Z,7.30
2023-03-04T10:42:49.200Z,7.12
2023-03-04T10:43:49.184Z,6.99
2023-03-04T10:44:49.198Z,7.19
2023-03-04T10:45:49.298Z,7.95
2023-03-04T10:46:49.154Z,8.36
2023-03-04T10:47:49.146Z,8.60
2023-03-04T10:48:49.130Z,8.58
2023-03-04T10:49:49.118Z,8.52
2023-03-04T10:50:49.119Z,8.36
2023-03-04T10:51:49.097Z,8.34
2023-03-04T10:52:49.080Z,8.10
2023-03-04T10:53:49.105Z,8.07
2023-03-04T10:54:49.080Z,8.02
2023-03-04T10:55:49.049Z,8.07
2023-03-04T10:56:49.037Z,7.89
2023-03-04T10:57:49.029Z,7.82
2023-03-04T10:58:49.020Z,7.60
2023-03-04T10:59:49.017Z,7.34
2023-03-04T11:00:49.021Z,7.18
2023-03-04T11:01:48.982Z,7.16
2023-03-04T11:02:48.976Z,7.26
2023-03-04T11:03:49.008Z,7.34
2023-03-04T11:04:48.956Z,7.42
2023-03-04T11:05:48.941Z,7.66
2023-03-04T11:06:48.925Z,7.69
2023-03-04T11:07:55.657Z,7.70
2023-03-04T11:08:49.928Z,7.85
2023-03-04T11:09:48.893Z,7.88
2023-03-04T11:10:48.880Z,7.95
2023-03-04T11:11:48.869Z,8.09
2023-03-04T11:12:48.856Z,8.22
2023-03-04T11:13:48.847Z,8.34
2023-03-04T11:14:48.834Z,8.37
2023-03-04T11:15:48.822Z,8.39
2023-03-04T11:16:48.875Z,8.52
2023-03-04T11:17:48.801Z,8.54
2023-03-04T11:18:48.785Z,8.55
2023-03-04T11:19:48.776Z,8.54
2023-03-04T11:20:48.766Z,8.47
2023-03-04T11:21:48.765Z,8.57
2023-03-04T11:22:48.742Z,8.32
2023-03-04T11:23:48.737Z,7.96
2023-03-04T11:24:48.728Z,7.84
2023-03-04T11:25:48.717Z,7.71
2023-03-04T11:26:48.698Z,7.67
2023-03-04T11:27:48.692Z,7.70
2023-03-04T11:28:48.689Z,7.70
2023-03-04T11:29:48.670Z,7.66
2023-03-04T11:30:49.071Z,7.69
2023-03-04T11:31:48.738Z,7.58
2023-03-04T11:32:48.727Z,7.58
2023-03-04T11:33:48.631Z,7.57
2023-03-04T11:34:48.610Z,7.52
2023-03-04T11:35:48.662Z,7.42
2023-03-04T11:36:48.593Z,7.48
2023-03-04T11:37:48.584Z,7.62
2023-03-04T11:38:48.581Z,7.55
2023-03-04T11:39:48.573Z,7.71
2023-03-04T11:40:48.576Z,7.71
2023-03-04T11:41:48.563Z,7.79
2023-03-04T11:42:48.539Z,7.91
2023-03-04T11:43:48.538Z,8.04
2023-03-04T11:44:48.522Z,7.96
2023-03-04T11:45:48.587Z,8.06
2023-03-04T11:46:48.511Z,8.17
2023-03-04T11:47:48.496Z,8.03
2023-03-04T11:48:48.510Z,8.04
2023-03-04T11:49:48.469Z,8.18
2023-03-04T11:50:48.462Z,8.29
2023-03-04T11:51:48.481Z,8.31
2023-03-04T11:52:48.439Z,8.39
2023-03-04T11:53:48.437Z,8.37
2023-03-04T11:54:48.424Z,8.32
2023-03-04T11:55:48.409Z,8.27
2023-03-04T11:56:48.412Z,8.07
2023-03-04T11:57:48.398Z,8.00
2023-03-04T11:58:48.376Z,7.85
2023-03-04T11:59:48.359Z,7.67
2023-03-04T12:00:48.360Z,7.54
2023-03-04T12:01:48.340Z,7.29
2023-03-04T12:02:48.334Z,7.16
2023-03-04T12:03:48.563Z,7.01
2023-03-04T12:04:48.392Z,6.91
2023-03-04T12:05:48.293Z,6.75
2023-03-04T12:06:48.282Z,6.63
2023-03-04T12:07:48.277Z,6.68
2023-03-04T12:08:48.263Z,6.76
2023-03-04T12:09:48.252Z,6.97
2023-03-04T12:10:48.242Z,6.93
2023-03-04T12:11:48.224Z,6.86
2023-03-04T12:12:48.218Z,6.94
2023-03-04T12:13:48.219Z,7.08
2023-03-04T12:14:48.195Z,7.09
2023-03-04T12:15:48.284Z,7.12
2023-03-04T12:16:48.324Z,7.30
2023-03-04T12:17:48.167Z,7.24
2023-03-04T12:18:48.148Z,7.23
2023-03-04T12:19:48.145Z,7.14
2023-03-04T12:20:48.165Z,7.12
2023-03-04T12:21:48.121Z,7.19
2023-03-04T12:22:48.106Z,7.27
2023-03-04T12:23:48.100Z,7.16
2023-03-04T12:24:48.099Z,7.30
2023-03-04T12:25:48.076Z,7.48
2023-03-04T12:26:48.069Z,7.60
2023-03-04T12:27:48.053Z,7.60
2023-03-04T12:28:48.037Z,7.54
2023-03-04T12:29:48.030Z,7.57
2023-03-04T12:30:48.053Z,7.74
2023-03-04T12:31:48.023Z,7.63
2023-03-04T12:32:47.996Z,7.55
2023-03-04T12:33:48.052Z,7.71
2023-03-04T12:34:47.980Z,7.86
2023-03-04T12:35:48.025Z,7.95
2023-03-04T12:36:47.976Z,7.96
2023-03-04T12:37:47.944Z,8.07
2023-03-04T12:38:47.927Z,8.06
2023-03-04T12:39:47.924Z,8.12
2023-03-04T12:40:47.906Z,8.07
2023-03-04T12:41:47.902Z,8.03
2023-03-04T12:42:47.882Z,8.06
2023-03-04T12:43:47.872Z,8.02
2023-03-04T12:44:47.872Z,7.95
2023-03-04T12:45:47.857Z,7.84
2023-03-04T12:46:47.864Z,7.71
2023-03-04T12:47:47.835Z,7.70
2023-03-04T12:48:47.819Z,7.52
2023-03-04T12:49:47.804Z,7.45
2023-03-04T12:50:47.793Z,7.51
2023-03-04T12:51:47.784Z,7.51
2023-03-04T12:52:47.797Z,7.52
2023-03-04T12:53:47.772Z,7.47
2023-03-04T12:54:47.791Z,7.50
2023-03-04T12:55:47.740Z,7.42
2023-03-04T12:56:47.726Z,7.37
2023-03-04T12:57:47.721Z,7.39
2023-03-04T12:58:47.712Z,7.32
2023-03-04T12:59:47.699Z,7.19
2023-03-04T13:00:47.823Z,7.18
2023-03-04T13:01:47.678Z,7.16
2023-03-04T13:02:47.801Z,7.16
2023-03-04T13:03:47.714Z,7.19
2023-03-04T13:04:47.646Z,7.11
2023-03-04T13:05:47.642Z,7.09
2023-03-04T13:06:47.648Z,7.11
2023-03-04T13:07:47.737Z,7.07
2023-03-04T13:08:47.623Z,7.19
2023-03-04T13:09:47.588Z,7.39
2023-03-04T13:10:47.588Z,7.60
2023-03-04T13:11:47.591Z,7.69
2023-03-04T13:12:47.550Z,7.60
2023-03-04T13:13:47.540Z,7.44
2023-03-04T13:14:47.532Z,7.41
2023-03-04T13:15:47.613Z,7.50
2023-03-04T13:16:47.521Z,7.48
2023-03-04T13:17:47.522Z,7.51
2023-03-04T13:18:47.519Z,7.54